sensor_id;sensor_type;location;lat;lon;timestamp;P1;durP1;ratioP1;P2;durP2;ratioP2
40048;SDS011;54524;55.740;37.544;2024-01-27T00:01:03;18.6;;;14.4;;
40048;SDS011;54524;55.740;37.544;2024-01-27T00:02:04;18.8;;;14.4;;
40048;SDS011;54524;55.740;37.544;2024-01-27T00:03:04;18.5;;;14.4;;
40048;SDS011;54524;55.740;37.544;2024-01-27T00:04:05;19.2;;;14.9;;
40048;SDS011;54524;55.740;37.544;2024-01-27T00:05:06;18.9;;;14.8;;
40048;SDS011;54524;55.740;37.544;2024-01-27T00:06:06;18.9;;;14.8;;
40048;SDS011;54524;55.740;37.544;2024-01-27T00:07:07;19.3;;;14.5;;
40048;SDS011;54524;55.740;37.544;2024-01-27T00:08:07;19.3;;;14.5;;
40048;SDS011;54524;55.740;37.544;2024-01-27T00:09:08;19;;;14.5;;
40048;SDS011;54524;55.740;37.544;2024-01-27T00:11:03;21.1;;;14.9;;
40048;SDS011;54524;55.740;37.544;2024-01-27T00:12:04;21.1;;;14.9;;
40048;SDS011;54524;55.740;37.544;2024-01-27T00:13:04;20.3;;;15.3;;
40048;SDS011;54524;55.740;37.544;2024-01-27T00:14:05;20.2;;;15.1;;
40048;SDS011;54524;55.740;37.544;2024-01-27T00:15:06;19.9;;;15;;
40048;SDS011;54524;55.740;37.544;2024-01-27T00:16:08;18.9;;;14.5;;
40048;SDS011;54524;55.740;37.544;2024-01-27T00:17:09;18.9;;;14.5;;
40048;SDS011;54524;55.740;37.544;2024-01-27T00:18:09;18.9;;;14.5;;
40048;SDS011;54524;55.740;37.544;2024-01-27T00:19:10;19.5;;;15;;
40048;SDS011;54524;55.740;37.544;2024-01-27T00:21:03;20.4;;;15.1;;
40048;SDS011;54524;55.740;37.544;2024-01-27T00:22:04;18.2;;;14.9;;
40048;SDS011;54524;55.740;37.544;2024-01-27T00:23:04;18.3;;;14.9;;
40048;SDS011;54524;55.740;37.544;2024-01-27T00:24:05;18.4;;;15;;
40048;SDS011;54524;55.740;37.544;2024-01-27T00:25:06;19;;;14.7;;
40048;SDS011;54524;55.740;37.544;2024-01-27T00:26:06;19.2;;;14.8;;
40048;SDS011;54524;55.740;37.544;2024-01-27T00:27:07;19.4;;;14.8;;
40048;SDS011;54524;55.740;37.544;2024-01-27T00:28:08;21.1;;;15.3;;
40048;SDS011;54524;55.740;37.544;2024-01-27T00:29:08;21.3;;;15.4;;
40048;SDS011;54524;55.740;37.544;2024-01-27T00:31:03;19.1;;;15;;
40048;SDS011;54524;55.740;37.544;2024-01-27T00:32:04;19.1;;;15;;
40048;SDS011;54524;55.740;37.544;2024-01-27T00:33:05;19.3;;;15;;
40048;SDS011;54524;55.740;37.544;2024-01-27T00:34:05;18.7;;;14.6;;
40048;SDS011;54524;55.740;37.544;2024-01-27T00:35:07;18.9;;;14.5;;
40048;SDS011;54524;55.740;37.544;2024-01-27T00:36:07;19.2;;;14.6;;
40048;SDS011;54524;55.740;37.544;2024-01-27T00:37:08;17.6;;;14.1;;
40048;SDS011;54524;55.740;37.544;2024-01-27T00:38:08;17.5;;;14;;
40048;SDS011;54524;55.740;37.544;2024-01-27T00:39:09;17.2;;;13.8;;
40048;SDS011;54524;55.740;37.544;2024-01-27T00:41:03;19.2;;;14.4;;
40048;SDS011;54524;55.740;37.544;2024-01-27T00:42:03;19.2;;;14.4;;
40048;SDS011;54524;55.740;37.544;2024-01-27T00:43:04;18.9;;;14.5;;
40048;SDS011;54524;55.740;37.544;2024-01-27T00:44:04;21.1;;;15.5;;
40048;SDS011;54524;55.740;37.544;2024-01-27T00:45:05;21.2;;;15.5;;
40048;SDS011;54524;55.740;37.544;2024-01-27T00:46:06;20.7;;;15.6;;
40048;SDS011;54524;55.740;37.544;2024-01-27T00:47:06;19.3;;;15.1;;
40048;SDS011;54524;55.740;37.544;2024-01-27T00:48:07;19.5;;;15.2;;
40048;SDS011;54524;55.740;37.544;2024-01-27T00:49:07;19.6;;;15.2;;
40048;SDS011;54524;55.740;37.544;2024-01-27T00:51:03;19;;;14.6;;
40048;SDS011;54524;55.740;37.544;2024-01-27T00:52:04;19;;;14.5;;
40048;SDS011;54524;55.740;37.544;2024-01-27T00:53:05;19.6;;;15.3;;
40048;SDS011;54524;55.740;37.544;2024-01-27T00:54:05;19.3;;;15.2;;
40048;SDS011;54524;55.740;37.544;2024-01-27T00:55:06;19.1;;;15.1;;
40048;SDS011;54524;55.740;37.544;2024-01-27T00:56:07;20.5;;;15.5;;
40048;SDS011;54524;55.740;37.544;2024-01-27T00:57:07;20.4;;;15.6;;
40048;SDS011;54524;55.740;37.544;2024-01-27T00:58:08;20;;;15.6;;
40048;SDS011;54524;55.740;37.544;2024-01-27T00:59:08;18.5;;;14.7;;
40048;SDS011;54524;55.740;37.544;2024-01-27T01:01:02;18.4;;;14.6;;
40048;SDS011;54524;55.740;37.544;2024-01-27T01:02:03;18.5;;;14.4;;
40048;SDS011;54524;55.740;37.544;2024-01-27T01:03:04;19;;;14.4;;
40048;SDS011;54524;55.740;37.544;2024-01-27T01:04:04;19.1;;;14.3;;
40048;SDS011;54524;55.740;37.544;2024-01-27T01:05:05;17.7;;;14.2;;
40048;SDS011;54524;55.740;37.544;2024-01-27T01:06:06;17.6;;;14.1;;
40048;SDS011;54524;55.740;37.544;2024-01-27T01:07:06;17.7;;;14.1;;
40048;SDS011;54524;55.740;37.544;2024-01-27T01:08:07;19.8;;;14.2;;
40048;SDS011;54524;55.740;37.544;2024-01-27T01:09:08;20;;;14.3;;
40048;SDS011;54524;55.740;37.544;2024-01-27T01:11:03;17.8;;;13.5;;
40048;SDS011;54524;55.740;37.544;2024-01-27T01:12:04;17.9;;;13.5;;
40048;SDS011;54524;55.740;37.544;2024-01-27T01:13:05;17.9;;;13.5;;
40048;SDS011;54524;55.740;37.544;2024-01-27T01:14:06;16.9;;;13.6;;
40048;SDS011;54524;55.740;37.544;2024-01-27T01:15:07;18;;;13.7;;
40048;SDS011;54524;55.740;37.544;2024-01-27T01:16:07;18;;;13.6;;
40048;SDS011;54524;55.740;37.544;2024-01-27T01:17:08;18.6;;;13.7;;
40048;SDS011;54524;55.740;37.544;2024-01-27T01:18:09;18.5;;;13.7;;
40048;SDS011;54524;55.740;37.544;2024-01-27T01:19:09;18.3;;;13.6;;
40048;SDS011;54524;55.740;37.544;2024-01-27T01:21:02;17.7;;;14.1;;
40048;SDS011;54524;55.740;37.544;2024-01-27T01:22:04;17.7;;;14.1;;
40048;SDS011;54524;55.740;37.544;2024-01-27T01:23:04;17.9;;;13.9;;
40048;SDS011;54524;55.740;37.544;2024-01-27T01:24:05;17.9;;;13.9;;
40048;SDS011;54524;55.740;37.544;2024-01-27T01:25:06;17.8;;;13.9;;
40048;SDS011;54524;55.740;37.544;2024-01-27T01:26:06;17.2;;;13.6;;
40048;SDS011;54524;55.740;37.544;2024-01-27T01:27:07;17;;;13.5;;
40048;SDS011;54524;55.740;37.544;2024-01-27T01:28:08;17.2;;;13.5;;
40048;SDS011;54524;55.740;37.544;2024-01-27T01:29:08;16.9;;;13.5;;
40048;SDS011;54524;55.740;37.544;2024-01-27T01:31:05;6.30;;;1.20;;
40048;SDS011;54524;55.740;37.544;2024-01-27T01:32:06;17.2;;;13.5;;
40048;SDS011;54524;55.740;37.544;2024-01-27T01:33:07;17;;;13.1;;
40048;SDS011;54524;55.740;37.544;2024-01-27T01:34:07;16.9;;;13.1;;
40048;SDS011;54524;55.740;37.544;2024-01-27T01:35:08;16.7;;;13.1;;
40048;SDS011;54524;55.740;37.544;2024-01-27T01:36:10;15;;;12.4;;
40048;SDS011;54524;55.740;37.544;2024-01-27T01:37:10;15.1;;;12.3;;
40048;SDS011;54524;55.740;37.544;2024-01-27T01:38:11;14.9;;;12.2;;
40048;SDS011;54524;55.740;37.544;2024-01-27T01:39:11;14.4;;;11.9;;
40048;SDS011;54524;55.740;37.544;2024-01-27T01:41:03;14.3;;;11.9;;
40048;SDS011;54524;55.740;37.544;2024-01-27T01:42:03;15.8;;;12.5;;
40048;SDS011;54524;55.740;37.544;2024-01-27T01:43:08;16;;;12.5;;
40048;SDS011;54524;55.740;37.544;2024-01-27T01:44:09;16;;;12.5;;
40048;SDS011;54524;55.740;37.544;2024-01-27T01:45:10;15.5;;;12.4;;
40048;SDS011;54524;55.740;37.544;2024-01-27T01:46:12;15.7;;;12.5;;
40048;SDS011;54524;55.740;37.544;2024-01-27T01:47:12;15.6;;;12.5;;
40048;SDS011;54524;55.740;37.544;2024-01-27T01:48:13;17.4;;;12.3;;
40048;SDS011;54524;55.740;37.544;2024-01-27T01:49:13;17.3;;;12.4;;
40048;SDS011;54524;55.740;37.544;2024-01-27T01:51:03;15.5;;;12.5;;
40048;SDS011;54524;55.740;37.544;2024-01-27T01:52:05;15.6;;;12.6;;
40048;SDS011;54524;55.740;37.544;2024-01-27T01:53:05;15.4;;;12.6;;
40048;SDS011;54524;55.740;37.544;2024-01-27T01:54:06;15.5;;;12.4;;
40048;SDS011;54524;55.740;37.544;2024-01-27T01:55:07;15.2;;;12.3;;
40048;SDS011;54524;55.740;37.544;2024-01-27T01:56:07;14.9;;;12.3;;
40048;SDS011;54524;55.740;37.544;2024-01-27T01:57:08;15.8;;;12.4;;
40048;SDS011;54524;55.740;37.544;2024-01-27T01:58:09;15.5;;;12.4;;
40048;SDS011;54524;55.740;37.544;2024-01-27T01:59:10;15.7;;;12.5;;
40048;SDS011;54524;55.740;37.544;2024-01-27T02:01:03;17.3;;;13.2;;
40048;SDS011;54524;55.740;37.544;2024-01-27T02:02:03;18;;;13.2;;
40048;SDS011;54524;55.740;37.544;2024-01-27T02:03:04;18;;;13.2;;
40048;SDS011;54524;55.740;37.544;2024-01-27T02:04:04;18.3;;;13.7;;
40048;SDS011;54524;55.740;37.544;2024-01-27T02:05:05;18.3;;;13.8;;
40048;SDS011;54524;55.740;37.544;2024-01-27T02:06:06;18.3;;;13.7;;
40048;SDS011;54524;55.740;37.544;2024-01-27T02:07:07;18.3;;;13.3;;
40048;SDS011;54524;55.740;37.544;2024-01-27T02:08:07;18.2;;;13.2;;
40048;SDS011;54524;55.740;37.544;2024-01-27T02:09:09;18.4;;;13.3;;
40048;SDS011;54524;55.740;37.544;2024-01-27T02:11:03;18.6;;;13.6;;
40048;SDS011;54524;55.740;37.544;2024-01-27T02:12:04;18.6;;;13.6;;
40048;SDS011;54524;55.740;37.544;2024-01-27T02:13:14;16.9;;;13.6;;
40048;SDS011;54524;55.740;37.544;2024-01-27T02:14:17;16.9;;;13.5;;
40048;SDS011;54524;55.740;37.544;2024-01-27T02:15:17;16.9;;;13.5;;
40048;SDS011;54524;55.740;37.544;2024-01-27T02:16:18;17.8;;;13.2;;
40048;SDS011;54524;55.740;37.544;2024-01-27T02:17:19;17.5;;;13.2;;
40048;SDS011;54524;55.740;37.544;2024-01-27T02:18:19;17.4;;;13.1;;
40048;SDS011;54524;55.740;37.544;2024-01-27T02:19:21;15.8;;;12.9;;
40048;SDS011;54524;55.740;37.544;2024-01-27T02:21:03;15.6;;;12.8;;
40048;SDS011;54524;55.740;37.544;2024-01-27T02:22:03;15.5;;;12.4;;
40048;SDS011;54524;55.740;37.544;2024-01-27T02:23:04;15.5;;;12.4;;
40048;SDS011;54524;55.740;37.544;2024-01-27T02:24:06;15.5;;;12.4;;
40048;SDS011;54524;55.740;37.544;2024-01-27T02:25:07;16.4;;;13;;
40048;SDS011;54524;55.740;37.544;2024-01-27T02:26:08;16.6;;;13.1;;
40048;SDS011;54524;55.740;37.544;2024-01-27T02:27:08;16.6;;;13.1;;
40048;SDS011;54524;55.740;37.544;2024-01-27T02:28:09;15.7;;;12.4;;
40048;SDS011;54524;55.740;37.544;2024-01-27T02:29:09;15.7;;;12.5;;
40048;SDS011;54524;55.740;37.544;2024-01-27T02:31:03;15.3;;;12.2;;
40048;SDS011;54524;55.740;37.544;2024-01-27T02:32:04;15.4;;;12.3;;
40048;SDS011;54524;55.740;37.544;2024-01-27T02:33:05;15.6;;;12.3;;
40048;SDS011;54524;55.740;37.544;2024-01-27T02:34:05;17.1;;;13;;
40048;SDS011;54524;55.740;37.544;2024-01-27T02:35:06;17.2;;;13;;
40048;SDS011;54524;55.740;37.544;2024-01-27T02:36:07;17.1;;;13.1;;
40048;SDS011;54524;55.740;37.544;2024-01-27T02:37:08;17.4;;;13.1;;
40048;SDS011;54524;55.740;37.544;2024-01-27T02:38:09;17.4;;;13;;
40048;SDS011;54524;55.740;37.544;2024-01-27T02:39:09;16.7;;;12.9;;
40048;SDS011;54524;55.740;37.544;2024-01-27T02:41:02;17.2;;;12.8;;
40048;SDS011;54524;55.740;37.544;2024-01-27T02:42:03;17.1;;;12.8;;
40048;SDS011;54524;55.740;37.544;2024-01-27T02:43:04;17.2;;;12.6;;
40048;SDS011;54524;55.740;37.544;2024-01-27T02:44:04;17.3;;;12.5;;
40048;SDS011;54524;55.740;37.544;2024-01-27T02:45:05;17.7;;;12.6;;
40048;SDS011;54524;55.740;37.544;2024-01-27T02:46:07;15.3;;;12.4;;
40048;SDS011;54524;55.740;37.544;2024-01-27T02:47:08;15.3;;;12.4;;
40048;SDS011;54524;55.740;37.544;2024-01-27T02:48:08;15.3;;;12.4;;
40048;SDS011;54524;55.740;37.544;2024-01-27T02:49:09;16.3;;;12;;
40048;SDS011;54524;55.740;37.544;2024-01-27T02:51:03;15.8;;;12;;
40048;SDS011;54524;55.740;37.544;2024-01-27T02:52:04;15.9;;;12.1;;
40048;SDS011;54524;55.740;37.544;2024-01-27T02:53:04;15;;;12.3;;
40048;SDS011;54524;55.740;37.544;2024-01-27T02:54:05;15;;;12.3;;
40048;SDS011;54524;55.740;37.544;2024-01-27T02:55:06;15;;;12.3;;
40048;SDS011;54524;55.740;37.544;2024-01-27T02:56:06;14.1;;;11.6;;
40048;SDS011;54524;55.740;37.544;2024-01-27T02:57:08;14;;;11.6;;
40048;SDS011;54524;55.740;37.544;2024-01-27T02:58:09;14.3;;;11.7;;
40048;SDS011;54524;55.740;37.544;2024-01-27T02:59:11;14.4;;;11.5;;
40048;SDS011;54524;55.740;37.544;2024-01-27T03:01:04;14.4;;;11.5;;
40048;SDS011;54524;55.740;37.544;2024-01-27T03:02:04;13.6;;;11.2;;
40048;SDS011;54524;55.740;37.544;2024-01-27T03:03:04;13.6;;;11.2;;
40048;SDS011;54524;55.740;37.544;2024-01-27T03:04:05;13.6;;;11.3;;
40048;SDS011;54524;55.740;37.544;2024-01-27T03:05:06;14.4;;;11.2;;
40048;SDS011;54524;55.740;37.544;2024-01-27T03:06:07;14.3;;;11.2;;
40048;SDS011;54524;55.740;37.544;2024-01-27T03:07:08;14.5;;;11.2;;
40048;SDS011;54524;55.740;37.544;2024-01-27T03:08:09;14.7;;;12.1;;
40048;SDS011;54524;55.740;37.544;2024-01-27T03:09:09;14.6;;;12.1;;
40048;SDS011;54524;55.740;37.544;2024-01-27T03:11:04;6.30;;;1.20;;
40048;SDS011;54524;55.740;37.544;2024-01-27T03:12:04;16;;;12.5;;
40048;SDS011;54524;55.740;37.544;2024-01-27T03:13:05;15.8;;;12.5;;
40048;SDS011;54524;55.740;37.544;2024-01-27T03:14:06;15.9;;;12.6;;
40048;SDS011;54524;55.740;37.544;2024-01-27T03:15:07;16.2;;;12.5;;
40048;SDS011;54524;55.740;37.544;2024-01-27T03:16:08;16.2;;;12.4;;
40048;SDS011;54524;55.740;37.544;2024-01-27T03:17:09;16.3;;;12.5;;
40048;SDS011;54524;55.740;37.544;2024-01-27T03:18:09;18.4;;;13.3;;
40048;SDS011;54524;55.740;37.544;2024-01-27T03:19:10;18.3;;;13.4;;
40048;SDS011;54524;55.740;37.544;2024-01-27T03:21:03;19.2;;;13.7;;
40048;SDS011;54524;55.740;37.544;2024-01-27T03:22:06;19.3;;;13.8;;
40048;SDS011;54524;55.740;37.544;2024-01-27T03:23:06;19;;;13.7;;
40048;SDS011;54524;55.740;37.544;2024-01-27T03:24:07;16.3;;;13;;
40048;SDS011;54524;55.740;37.544;2024-01-27T03:25:07;16.5;;;13;;
40048;SDS011;54524;55.740;37.544;2024-01-27T03:26:08;16.4;;;13;;
40048;SDS011;54524;55.740;37.544;2024-01-27T03:27:09;15.7;;;12.7;;
40048;SDS011;54524;55.740;37.544;2024-01-27T03:28:09;15.9;;;12.8;;
40048;SDS011;54524;55.740;37.544;2024-01-27T03:29:10;16;;;12.8;;
40048;SDS011;54524;55.740;37.544;2024-01-27T03:31:04;15.5;;;12.1;;
40048;SDS011;54524;55.740;37.544;2024-01-27T03:32:05;15.7;;;12.2;;
40048;SDS011;54524;55.740;37.544;2024-01-27T03:33:05;13.3;;;10.9;;
40048;SDS011;54524;55.740;37.544;2024-01-27T03:34:10;14;;;11;;
40048;SDS011;54524;55.740;37.544;2024-01-27T03:35:11;14;;;11.1;;
40048;SDS011;54524;55.740;37.544;2024-01-27T03:36:12;11.9;;;9.5;;
40048;SDS011;54524;55.740;37.544;2024-01-27T03:37:13;11.6;;;9.4;;
40048;SDS011;54524;55.740;37.544;2024-01-27T03:38:13;11.5;;;9.3;;
40048;SDS011;54524;55.740;37.544;2024-01-27T03:39:14;12.4;;;9.4;;
40048;SDS011;54524;55.740;37.544;2024-01-27T03:41:03;12.2;;;9.5;;
40048;SDS011;54524;55.740;37.544;2024-01-27T03:42:03;12.2;;;9.5;;
40048;SDS011;54524;55.740;37.544;2024-01-27T03:43:04;10.9;;;8.5;;
40048;SDS011;54524;55.740;37.544;2024-01-27T03:44:04;11;;;8.6;;
40048;SDS011;54524;55.740;37.544;2024-01-27T03:45:05;11;;;8.8;;
40048;SDS011;54524;55.740;37.544;2024-01-27T03:46:05;10.9;;;8.8;;
40048;SDS011;54524;55.740;37.544;2024-01-27T03:47:06;10.9;;;8.9;;
40048;SDS011;54524;55.740;37.544;2024-01-27T03:48:07;9.9;;;7.7;;
40048;SDS011;54524;55.740;37.544;2024-01-27T03:49:07;9.7;;;7.7;;
40048;SDS011;54524;55.740;37.544;2024-01-27T03:51:04;9.9;;;7.4;;
40048;SDS011;54524;55.740;37.544;2024-01-27T03:52:05;9.6;;;7.4;;
40048;SDS011;54524;55.740;37.544;2024-01-27T03:53:06;9.7;;;7.4;;
40048;SDS011;54524;55.740;37.544;2024-01-27T03:54:06;9.3;;;7.2;;
40048;SDS011;54524;55.740;37.544;2024-01-27T03:55:07;9.3;;;7.1;;
40048;SDS011;54524;55.740;37.544;2024-01-27T03:56:11;9.5;;;7.2;;
40048;SDS011;54524;55.740;37.544;2024-01-27T03:57:11;10.6;;;7.5;;
40048;SDS011;54524;55.740;37.544;2024-01-27T03:58:12;10.4;;;7.4;;
40048;SDS011;54524;55.740;37.544;2024-01-27T03:59:12;9.7;;;7.4;;
40048;SDS011;54524;55.740;37.544;2024-01-27T04:01:04;9.4;;;7.8;;
40048;SDS011;54524;55.740;37.544;2024-01-27T04:02:04;9.3;;;7.8;;
40048;SDS011;54524;55.740;37.544;2024-01-27T04:03:05;10.3;;;8.2;;
40048;SDS011;54524;55.740;37.544;2024-01-27T04:04:06;10.2;;;8.1;;
40048;SDS011;54524;55.740;37.544;2024-01-27T04:05:06;10;;;8;;
40048;SDS011;54524;55.740;37.544;2024-01-27T04:06:07;10;;;8;;
40048;SDS011;54524;55.740;37.544;2024-01-27T04:07:08;11.3;;;8.1;;
40048;SDS011;54524;55.740;37.544;2024-01-27T04:08:08;11.4;;;8.2;;
40048;SDS011;54524;55.740;37.544;2024-01-27T04:09:08;11.2;;;8.2;;
40048;SDS011;54524;55.740;37.544;2024-01-27T04:11:03;11.1;;;7.9;;
40048;SDS011;54524;55.740;37.544;2024-01-27T04:12:04;11;;;7.9;;
40048;SDS011;54524;55.740;37.544;2024-01-27T04:13:05;9.9;;;8;;
40048;SDS011;54524;55.740;37.544;2024-01-27T04:14:05;10;;;8;;
40048;SDS011;54524;55.740;37.544;2024-01-27T04:15:06;10.1;;;8;;
40048;SDS011;54524;55.740;37.544;2024-01-27T04:16:07;11.8;;;8.3;;
40048;SDS011;54524;55.740;37.544;2024-01-27T04:17:07;12.1;;;8.4;;
40048;SDS011;54524;55.740;37.544;2024-01-27T04:18:08;12;;;8.4;;
40048;SDS011;54524;55.740;37.544;2024-01-27T04:19:09;9.5;;;7.9;;
40048;SDS011;54524;55.740;37.544;2024-01-27T04:21:03;9.5;;;7.9;;
40048;SDS011;54524;55.740;37.544;2024-01-27T04:22:04;11.3;;;8.3;;
40048;SDS011;54524;55.740;37.544;2024-01-27T04:23:04;11.4;;;8.3;;
40048;SDS011;54524;55.740;37.544;2024-01-27T04:24:05;11.5;;;8.3;;
40048;SDS011;54524;55.740;37.544;2024-01-27T04:25:06;11.8;;;8.1;;
40048;SDS011;54524;55.740;37.544;2024-01-27T04:26:06;11.9;;;8.2;;
40048;SDS011;54524;55.740;37.544;2024-01-27T04:27:09;11.7;;;8.2;;
40048;SDS011;54524;55.740;37.544;2024-01-27T04:28:10;11.8;;;8.2;;
40048;SDS011;54524;55.740;37.544;2024-01-27T04:29:12;11.8;;;8.3;;
40048;SDS011;54524;55.740;37.544;2024-01-27T04:31:03;10.8;;;8.5;;
40048;SDS011;54524;55.740;37.544;2024-01-27T04:32:04;9.9;;;8.4;;
40048;SDS011;54524;55.740;37.544;2024-01-27T04:33:04;9.9;;;8.3;;
40048;SDS011;54524;55.740;37.544;2024-01-27T04:34:07;13.1;;;8.8;;
40048;SDS011;54524;55.740;37.544;2024-01-27T04:35:08;12.8;;;8.8;;
40048;SDS011;54524;55.740;37.544;2024-01-27T04:36:09;12.8;;;8.8;;
40048;SDS011;54524;55.740;37.544;2024-01-27T04:37:10;12.3;;;8.6;;
40048;SDS011;54524;55.740;37.544;2024-01-27T04:38:11;12.6;;;8.6;;
40048;SDS011;54524;55.740;37.544;2024-01-27T04:39:11;12.5;;;8.6;;
40048;SDS011;54524;55.740;37.544;2024-01-27T04:41:03;12.1;;;8.6;;
40048;SDS011;54524;55.740;37.544;2024-01-27T04:42:04;12.3;;;8.7;;
40048;SDS011;54524;55.740;37.544;2024-01-27T04:43:06;0;;;0;;
40048;SDS011;54524;55.740;37.544;2024-01-27T04:44:07;10.8;;;8.3;;
40048;SDS011;54524;55.740;37.544;2024-01-27T04:45:07;10.9;;;8.4;;
40048;SDS011;54524;55.740;37.544;2024-01-27T04:46:08;12.9;;;8.9;;
40048;SDS011;54524;55.740;37.544;2024-01-27T04:47:09;12.7;;;8.8;;
40048;SDS011;54524;55.740;37.544;2024-01-27T04:48:10;12.8;;;8.8;;
40048;SDS011;54524;55.740;37.544;2024-01-27T04:49:10;12.2;;;8.8;;
40048;SDS011;54524;55.740;37.544;2024-01-27T04:51:03;12.2;;;8.9;;
40048;SDS011;54524;55.740;37.544;2024-01-27T04:52:03;12.2;;;8.9;;
40048;SDS011;54524;55.740;37.544;2024-01-27T04:53:04;11.9;;;9;;
40048;SDS011;54524;55.740;37.544;2024-01-27T04:54:05;11.9;;;9;;
40048;SDS011;54524;55.740;37.544;2024-01-27T04:55:05;11.9;;;9.1;;
40048;SDS011;54524;55.740;37.544;2024-01-27T04:56:06;12.6;;;9.3;;
40048;SDS011;54524;55.740;37.544;2024-01-27T04:57:08;12.6;;;9.3;;
40048;SDS011;54524;55.740;37.544;2024-01-27T04:58:08;12.6;;;9.3;;
40048;SDS011;54524;55.740;37.544;2024-01-27T04:59:09;12.7;;;9.2;;
40048;SDS011;54524;55.740;37.544;2024-01-27T05:01:03;12.5;;;9.2;;
40048;SDS011;54524;55.740;37.544;2024-01-27T05:02:04;13.3;;;9.2;;
40048;SDS011;54524;55.740;37.544;2024-01-27T05:03:04;13.3;;;9.2;;
40048;SDS011;54524;55.740;37.544;2024-01-27T05:04:07;14.2;;;9.2;;
40048;SDS011;54524;55.740;37.544;2024-01-27T05:05:08;13.1;;;9.7;;
40048;SDS011;54524;55.740;37.544;2024-01-27T05:06:08;13.7;;;9.7;;
40048;SDS011;54524;55.740;37.544;2024-01-27T05:07:09;13.5;;;9.6;;
40048;SDS011;54524;55.740;37.544;2024-01-27T05:08:10;12.3;;;9;;
40048;SDS011;54524;55.740;37.544;2024-01-27T05:09:10;12;;;8.9;;
40048;SDS011;54524;55.740;37.544;2024-01-27T05:11:03;10.8;;;8.3;;
40048;SDS011;54524;55.740;37.544;2024-01-27T05:12:03;11.1;;;8.4;;
40048;SDS011;54524;55.740;37.544;2024-01-27T05:13:04;11.1;;;8.5;;
40048;SDS011;54524;55.740;37.544;2024-01-27T05:14:05;14.6;;;10.6;;
40048;SDS011;54524;55.740;37.544;2024-01-27T05:15:05;14.3;;;10.5;;
40048;SDS011;54524;55.740;37.544;2024-01-27T05:16:06;14.3;;;10.5;;
40048;SDS011;54524;55.740;37.544;2024-01-27T05:17:07;14.6;;;9.5;;
40048;SDS011;54524;55.740;37.544;2024-01-27T05:18:07;14.6;;;9.6;;
40048;SDS011;54524;55.740;37.544;2024-01-27T05:19:08;14.4;;;9.5;;
40048;SDS011;54524;55.740;37.544;2024-01-27T05:21:03;10.4;;;7.8;;
40048;SDS011;54524;55.740;37.544;2024-01-27T05:22:04;10.5;;;7.8;;
40048;SDS011;54524;55.740;37.544;2024-01-27T05:23:04;11.3;;;8.4;;
40048;SDS011;54524;55.740;37.544;2024-01-27T05:24:05;11.3;;;8.3;;
40048;SDS011;54524;55.740;37.544;2024-01-27T05:25:06;11.1;;;8.4;;
40048;SDS011;54524;55.740;37.544;2024-01-27T05:26:06;11.5;;;8.5;;
40048;SDS011;54524;55.740;37.544;2024-01-27T05:27:07;11.5;;;8.4;;
40048;SDS011;54524;55.740;37.544;2024-01-27T05:28:07;12;;;8.5;;
40048;SDS011;54524;55.740;37.544;2024-01-27T05:29:08;9.9;;;8.3;;
40048;SDS011;54524;55.740;37.544;2024-01-27T05:31:03;10;;;8.4;;
40048;SDS011;54524;55.740;37.544;2024-01-27T05:32:04;11.8;;;8.4;;
40048;SDS011;54524;55.740;37.544;2024-01-27T05:33:04;11.7;;;8.4;;
40048;SDS011;54524;55.740;37.544;2024-01-27T05:34:05;11.7;;;8.4;;
40048;SDS011;54524;55.740;37.544;2024-01-27T05:35:06;10.5;;;8.4;;
40048;SDS011;54524;55.740;37.544;2024-01-27T05:36:06;10.3;;;8.4;;
40048;SDS011;54524;55.740;37.544;2024-01-27T05:37:07;10.2;;;8.3;;
40048;SDS011;54524;55.740;37.544;2024-01-27T05:38:08;10.9;;;8.1;;
40048;SDS011;54524;55.740;37.544;2024-01-27T05:39:08;10.8;;;8;;
40048;SDS011;54524;55.740;37.544;2024-01-27T05:41:03;11;;;8.5;;
40048;SDS011;54524;55.740;37.544;2024-01-27T05:42:04;11.1;;;8.5;;
40048;SDS011;54524;55.740;37.544;2024-01-27T05:43:04;11.1;;;8.6;;
40048;SDS011;54524;55.740;37.544;2024-01-27T05:44:05;11;;;8.4;;
40048;SDS011;54524;55.740;37.544;2024-01-27T05:45:06;11.1;;;8.4;;
40048;SDS011;54524;55.740;37.544;2024-01-27T05:46:08;11.2;;;8.4;;
40048;SDS011;54524;55.740;37.544;2024-01-27T05:47:09;10.6;;;8.9;;
40048;SDS011;54524;55.740;37.544;2024-01-27T05:48:10;10.6;;;8.9;;
40048;SDS011;54524;55.740;37.544;2024-01-27T05:49:11;10.6;;;8.9;;
40048;SDS011;54524;55.740;37.544;2024-01-27T05:51:03;11.6;;;8.8;;
40048;SDS011;54524;55.740;37.544;2024-01-27T05:52:03;11.5;;;8.7;;
40048;SDS011;54524;55.740;37.544;2024-01-27T05:53:04;11.3;;;8.7;;
40048;SDS011;54524;55.740;37.544;2024-01-27T05:54:05;10.3;;;8.2;;
40048;SDS011;54524;55.740;37.544;2024-01-27T05:55:05;10.3;;;8.2;;
40048;SDS011;54524;55.740;37.544;2024-01-27T05:56:07;10.3;;;8.3;;
40048;SDS011;54524;55.740;37.544;2024-01-27T05:57:07;10.7;;;8.5;;
40048;SDS011;54524;55.740;37.544;2024-01-27T05:58:08;10.7;;;8.5;;
40048;SDS011;54524;55.740;37.544;2024-01-27T05:59:08;10.6;;;8.4;;
40048;SDS011;54524;55.740;37.544;2024-01-27T06:01:03;9.9;;;8.2;;
40048;SDS011;54524;55.740;37.544;2024-01-27T06:02:03;9.7;;;8.2;;
40048;SDS011;54524;55.740;37.544;2024-01-27T06:03:04;0;;;0;;
40048;SDS011;54524;55.740;37.544;2024-01-27T06:04:04;11;;;8.4;;
40048;SDS011;54524;55.740;37.544;2024-01-27T06:05:05;10.9;;;8.4;;
40048;SDS011;54524;55.740;37.544;2024-01-27T06:06:06;0;;;0;;
40048;SDS011;54524;55.740;37.544;2024-01-27T06:07:06;9.6;;;8.3;;
40048;SDS011;54524;55.740;37.544;2024-01-27T06:08:07;9.7;;;8.3;;
40048;SDS011;54524;55.740;37.544;2024-01-27T06:09:08;9;;;7.6;;
40048;SDS011;54524;55.740;37.544;2024-01-27T06:11:03;9.2;;;7.7;;
40048;SDS011;54524;55.740;37.544;2024-01-27T06:12:04;9.5;;;8;;
40048;SDS011;54524;55.740;37.544;2024-01-27T06:13:05;9.6;;;8;;
40048;SDS011;54524;55.740;37.544;2024-01-27T06:14:05;9.5;;;8.1;;
40048;SDS011;54524;55.740;37.544;2024-01-27T06:15:07;10;;;7.6;;
40048;SDS011;54524;55.740;37.544;2024-01-27T06:16:09;10;;;7.7;;
40048;SDS011;54524;55.740;37.544;2024-01-27T06:17:09;9.8;;;7.6;;
40048;SDS011;54524;55.740;37.544;2024-01-27T06:18:10;9.5;;;7.4;;
40048;SDS011;54524;55.740;37.544;2024-01-27T06:19:10;9.5;;;7.4;;
40048;SDS011;54524;55.740;37.544;2024-01-27T06:21:05;9.5;;;7.4;;
40048;SDS011;54524;55.740;37.544;2024-01-27T06:22:05;11.5;;;7.3;;
40048;SDS011;54524;55.740;37.544;2024-01-27T06:23:06;11.3;;;7.3;;
40048;SDS011;54524;55.740;37.544;2024-01-27T06:24:06;10.8;;;7.4;;
40048;SDS011;54524;55.740;37.544;2024-01-27T06:25:07;9.8;;;8;;
40048;SDS011;54524;55.740;37.544;2024-01-27T06:26:08;9.6;;;7.9;;
40048;SDS011;54524;55.740;37.544;2024-01-27T06:27:09;9.5;;;7.8;;
40048;SDS011;54524;55.740;37.544;2024-01-27T06:28:09;8.7;;;7.4;;
40048;SDS011;54524;55.740;37.544;2024-01-27T06:29:10;8.7;;;7.3;;
40048;SDS011;54524;55.740;37.544;2024-01-27T06:31:04;9.3;;;7.4;;
40048;SDS011;54524;55.740;37.544;2024-01-27T06:32:04;9.3;;;7.4;;
40048;SDS011;54524;55.740;37.544;2024-01-27T06:33:05;9.3;;;7.4;;
40048;SDS011;54524;55.740;37.544;2024-01-27T06:34:06;9.5;;;7.4;;
40048;SDS011;54524;55.740;37.544;2024-01-27T06:35:06;9.5;;;7.4;;
40048;SDS011;54524;55.740;37.544;2024-01-27T06:36:07;9.8;;;7.4;;
40048;SDS011;54524;55.740;37.544;2024-01-27T06:37:09;9.8;;;7.6;;
40048;SDS011;54524;55.740;37.544;2024-01-27T06:38:10;9.8;;;7.5;;
40048;SDS011;54524;55.740;37.544;2024-01-27T06:39:10;9.7;;;7.4;;
40048;SDS011;54524;55.740;37.544;2024-01-27T06:41:03;10;;;8;;
40048;SDS011;54524;55.740;37.544;2024-01-27T06:42:03;9.8;;;8;;